sensor_id;sensor_type;location;lat;lon;timestamp;P1;durP1;ratioP1;P2;durP2;ratioP2
68921;SDS011;55959;51.244;5.724;2023-02-01T00:02:00;8.87;;;4.03;;
68921;SDS011;55959;51.244;5.724;2023-02-01T00:04:26;9.13;;;3.87;;
68921;SDS011;55959;51.244;5.724;2023-02-01T00:06:52;10.90;;;4.20;;
68921;SDS011;55959;51.244;5.724;2023-02-01T00:09:18;7.90;;;3.60;;
68921;SDS011;55959;51.244;5.724;2023-02-01T00:11:44;9.37;;;3.27;;
68921;SDS011;55959;51.244;5.724;2023-02-01T00:14:10;9.17;;;3.17;;
68921;SDS011;55959;51.244;5.724;2023-02-01T00:16:35;10.03;;;3.30;;
68921;SDS011;55959;51.244;5.724;2023-02-01T00:19:07;9.37;;;3.03;;
68921;SDS011;55959;51.244;5.724;2023-02-01T00:21:37;9.20;;;3.00;;
68921;SDS011;55959;51.244;5.724;2023-02-01T00:24:03;8.10;;;2.73;;
68921;SDS011;55959;51.244;5.724;2023-02-01T00:26:37;13.13;;;3.97;;
68921;SDS011;55959;51.244;5.724;2023-02-01T00:29:07;10.07;;;3.47;;
68921;SDS011;55959;51.244;5.724;2023-02-01T00:31:40;6.23;;;2.97;;
68921;SDS011;55959;51.244;5.724;2023-02-01T00:34:06;8.47;;;3.07;;
68921;SDS011;55959;51.244;5.724;2023-02-01T00:36:33;7.33;;;3.43;;
68921;SDS011;55959;51.244;5.724;2023-02-01T00:38:59;9.90;;;3.27;;
68921;SDS011;55959;51.244;5.724;2023-02-01T00:41:25;10.00;;;3.57;;
68921;SDS011;55959;51.244;5.724;2023-02-01T00:43:51;10.13;;;3.30;;
68921;SDS011;55959;51.244;5.724;2023-02-01T00:46:18;8.77;;;3.47;;
68921;SDS011;55959;51.244;5.724;2023-02-01T00:48:46;9.43;;;3.20;;
68921;SDS011;55959;51.244;5.724;2023-02-01T00:51:14;9.33;;;3.30;;
68921;SDS011;55959;51.244;5.724;2023-02-01T00:53:46;9.03;;;3.87;;
68921;SDS011;55959;51.244;5.724;2023-02-01T00:56:12;8.93;;;3.50;;
68921;SDS011;55959;51.244;5.724;2023-02-01T00:58:38;14.67;;;3.70;;
68921;SDS011;55959;51.244;5.724;2023-02-01T01:01:15;7.50;;;3.90;;
68921;SDS011;55959;51.244;5.724;2023-02-01T01:03:49;11.87;;;3.80;;
68921;SDS011;55959;51.244;5.724;2023-02-01T01:06:21;13.03;;;3.60;;
68921;SDS011;55959;51.244;5.724;2023-02-01T01:08:53;10.50;;;3.47;;
68921;SDS011;55959;51.244;5.724;2023-02-01T01:11:22;9.30;;;3.60;;
68921;SDS011;55959;51.244;5.724;2023-02-01T01:13:51;10.03;;;4.03;;
68921;SDS011;55959;51.244;5.724;2023-02-01T01:16:19;7.77;;;3.37;;
68921;SDS011;55959;51.244;5.724;2023-02-01T01:18:47;16.10;;;4.67;;
68921;SDS011;55959;51.244;5.724;2023-02-01T01:21:13;8.37;;;3.60;;
68921;SDS011;55959;51.244;5.724;2023-02-01T01:23:40;8.40;;;4.00;;
68921;SDS011;55959;51.244;5.724;2023-02-01T01:26:08;10.23;;;4.00;;
68921;SDS011;55959;51.244;5.724;2023-02-01T01:28:41;10.43;;;4.10;;
68921;SDS011;55959;51.244;5.724;2023-02-01T01:31:08;11.53;;;4.20;;
68921;SDS011;55959;51.244;5.724;2023-02-01T01:33:36;11.83;;;4.23;;
68921;SDS011;55959;51.244;5.724;2023-02-01T01:36:04;10.30;;;4.57;;
68921;SDS011;55959;51.244;5.724;2023-02-01T01:38:36;11.00;;;4.10;;
68921;SDS011;55959;51.244;5.724;2023-02-01T01:41:07;10.03;;;4.00;;
68921;SDS011;55959;51.244;5.724;2023-02-01T01:46:21;10.47;;;4.13;;
68921;SDS011;55959;51.244;5.724;2023-02-01T01:49:02;12.97;;;4.60;;
68921;SDS011;55959;51.244;5.724;2023-02-01T01:51:34;11.17;;;4.70;;
68921;SDS011;55959;51.244;5.724;2023-02-01T01:56:52;10.33;;;4.80;;
68921;SDS011;55959;51.244;5.724;2023-02-01T01:59:22;10.40;;;4.33;;
68921;SDS011;55959;51.244;5.724;2023-02-01T02:01:49;9.57;;;4.30;;
68921;SDS011;55959;51.244;5.724;2023-02-01T02:04:16;11.63;;;4.80;;
68921;SDS011;55959;51.244;5.724;2023-02-01T02:07:05;10.83;;;4.73;;
68921;SDS011;55959;51.244;5.724;2023-02-01T02:09:37;11.83;;;4.73;;
68921;SDS011;55959;51.244;5.724;2023-02-01T02:12:03;12.67;;;4.37;;
68921;SDS011;55959;51.244;5.724;2023-02-01T02:14:29;10.80;;;5.07;;
68921;SDS011;55959;51.244;5.724;2023-02-01T02:31:40;14.30;;;5.10;;
68921;SDS011;55959;51.244;5.724;2023-02-01T02:34:50;11.90;;;4.27;;
68921;SDS011;55959;51.244;5.724;2023-02-01T02:37:41;15.50;;;4.80;;
68921;SDS011;55959;51.244;5.724;2023-02-01T02:43:32;15.17;;;4.50;;
68921;SDS011;55959;51.244;5.724;2023-02-01T02:46:37;13.87;;;5.37;;
68921;SDS011;55959;51.244;5.724;2023-02-01T02:49:29;9.50;;;4.27;;
68921;SDS011;55959;51.244;5.724;2023-02-01T02:52:06;11.83;;;4.47;;
68921;SDS011;55959;51.244;5.724;2023-02-01T02:54:58;11.40;;;4.20;;
68921;SDS011;55959;51.244;5.724;2023-02-01T02:57:28;14.53;;;5.10;;
68921;SDS011;55959;51.244;5.724;2023-02-01T03:00:19;12.90;;;5.03;;
68921;SDS011;55959;51.244;5.724;2023-02-01T03:03:08;15.80;;;5.30;;
68921;SDS011;55959;51.244;5.724;2023-02-01T03:05:53;14.83;;;5.43;;
68921;SDS011;55959;51.244;5.724;2023-02-01T03:08:19;12.37;;;4.37;;
68921;SDS011;55959;51.244;5.724;2023-02-01T03:10:49;14.67;;;4.50;;
68921;SDS011;55959;51.244;5.724;2023-02-01T03:13:36;10.90;;;4.27;;
68921;SDS011;55959;51.244;5.724;2023-02-01T03:16:23;12.10;;;3.77;;
68921;SDS011;55959;51.244;5.724;2023-02-01T03:26:55;13.97;;;5.47;;
68921;SDS011;55959;51.244;5.724;2023-02-01T03:29:27;13.77;;;4.93;;
68921;SDS011;55959;51.244;5.724;2023-02-01T03:32:01;13.73;;;4.37;;
68921;SDS011;55959;51.244;5.724;2023-02-01T03:34:26;11.67;;;4.57;;
68921;SDS011;55959;51.244;5.724;2023-02-01T03:36:56;11.70;;;3.83;;
68921;SDS011;55959;51.244;5.724;2023-02-01T03:39:38;17.07;;;4.40;;
68921;SDS011;55959;51.244;5.724;2023-02-01T03:42:16;14.03;;;4.80;;
68921;SDS011;55959;51.244;5.724;2023-02-01T03:45:13;13.60;;;4.53;;
68921;SDS011;55959;51.244;5.724;2023-02-01T03:47:45;15.23;;;4.73;;
68921;SDS011;55959;51.244;5.724;2023-02-01T03:50:21;11.40;;;4.60;;
68921;SDS011;55959;51.244;5.724;2023-02-01T03:55:27;12.60;;;4.67;;
68921;SDS011;55959;51.244;5.724;2023-02-01T03:58:02;11.57;;;4.07;;
68921;SDS011;55959;51.244;5.724;2023-02-01T04:00:28;10.70;;;4.00;;
68921;SDS011;55959;51.244;5.724;2023-02-01T04:02:54;13.30;;;3.90;;
68921;SDS011;55959;51.244;5.724;2023-02-01T04:05:20;12.23;;;3.97;;
68921;SDS011;55959;51.244;5.724;2023-02-01T04:07:46;11.53;;;4.17;;
68921;SDS011;55959;51.244;5.724;2023-02-01T04:10:12;10.67;;;3.90;;
68921;SDS011;55959;51.244;5.724;2023-02-01T04:12:38;11.50;;;3.60;;
68921;SDS011;55959;51.244;5.724;2023-02-01T04:15:04;14.40;;;4.30;;
68921;SDS011;55959;51.244;5.724;2023-02-01T04:17:30;16.07;;;4.10;;
68921;SDS011;55959;51.244;5.724;2023-02-01T04:19:56;14.87;;;3.80;;
68921;SDS011;55959;51.244;5.724;2023-02-01T04:22:22;11.73;;;3.63;;
68921;SDS011;55959;51.244;5.724;2023-02-01T04:24:48;10.63;;;3.40;;
68921;SDS011;55959;51.244;5.724;2023-02-01T04:27:13;11.47;;;3.57;;
68921;SDS011;55959;51.244;5.724;2023-02-01T04:29:39;15.20;;;3.80;;
68921;SDS011;55959;51.244;5.724;2023-02-01T04:32:05;14.43;;;3.77;;
68921;SDS011;55959;51.244;5.724;2023-02-01T04:34:31;12.97;;;4.33;;
68921;SDS011;55959;51.244;5.724;2023-02-01T04:36:57;9.90;;;3.73;;
68921;SDS011;55959;51.244;5.724;2023-02-01T04:39:23;10.57;;;4.07;;
68921;SDS011;55959;51.244;5.724;2023-02-01T04:41:49;12.50;;;3.80;;
68921;SDS011;55959;51.244;5.724;2023-02-01T04:44:16;10.90;;;3.90;;
68921;SDS011;55959;51.244;5.724;2023-02-01T04:46:43;13.00;;;4.07;;
68921;SDS011;55959;51.244;5.724;2023-02-01T04:49:12;14.93;;;4.30;;
68921;SDS011;55959;51.244;5.724;2023-02-01T04:51:39;12.63;;;3.90;;
68921;SDS011;55959;51.244;5.724;2023-02-01T04:54:05;12.40;;;4.20;;
68921;SDS011;55959;51.244;5.724;2023-02-01T04:56:31;14.17;;;4.40;;
68921;SDS011;55959;51.244;5.724;2023-02-01T04:58:57;15.83;;;4.67;;
68921;SDS011;55959;51.244;5.724;2023-02-01T05:01:24;15.03;;;4.00;;
68921;SDS011;55959;51.244;5.724;2023-02-01T05:03:49;15.27;;;4.20;;
68921;SDS011;55959;51.244;5.724;2023-02-01T05:06:16;12.00;;;3.77;;
68921;SDS011;55959;51.244;5.724;2023-02-01T05:08:42;10.33;;;3.20;;
68921;SDS011;55959;51.244;5.724;2023-02-01T05:11:07;16.10;;;3.93;;
68921;SDS011;55959;51.244;5.724;2023-02-01T05:13:53;13.47;;;3.67;;
68921;SDS011;55959;51.244;5.724;2023-02-01T05:16:19;10.50;;;3.57;;
68921;SDS011;55959;51.244;5.724;2023-02-01T05:18:45;14.93;;;3.90;;
68921;SDS011;55959;51.244;5.724;2023-02-01T05:21:10;11.43;;;3.63;;
68921;SDS011;55959;51.244;5.724;2023-02-01T05:23:36;9.50;;;3.63;;
68921;SDS011;55959;51.244;5.724;2023-02-01T05:26:22;10.73;;;3.60;;
68921;SDS011;55959;51.244;5.724;2023-02-01T05:28:49;13.30;;;3.97;;
68921;SDS011;55959;51.244;5.724;2023-02-01T05:31:15;14.60;;;4.10;;
68921;SDS011;55959;51.244;5.724;2023-02-01T05:33:41;13.57;;;3.77;;
68921;SDS011;55959;51.244;5.724;2023-02-01T05:36:07;10.70;;;3.17;;
68921;SDS011;55959;51.244;5.724;2023-02-01T05:38:33;12.87;;;3.87;;
68921;SDS011;55959;51.244;5.724;2023-02-01T05:40:58;11.97;;;3.93;;
68921;SDS011;55959;51.244;5.724;2023-02-01T05:43:24;14.23;;;4.33;;
68921;SDS011;55959;51.244;5.724;2023-02-01T05:45:53;12.63;;;3.63;;
68921;SDS011;55959;51.244;5.724;2023-02-01T05:48:19;16.03;;;4.47;;
68921;SDS011;55959;51.244;5.724;2023-02-01T05:50:45;16.87;;;4.30;;
68921;SDS011;55959;51.244;5.724;2023-02-01T05:53:11;17.80;;;4.40;;
68921;SDS011;55959;51.244;5.724;2023-02-01T05:55:37;13.73;;;3.93;;
68921;SDS011;55959;51.244;5.724;2023-02-01T05:58:03;14.50;;;4.47;;
68921;SDS011;55959;51.244;5.724;2023-02-01T06:00:30;13.27;;;4.10;;
68921;SDS011;55959;51.244;5.724;2023-02-01T06:02:56;12.27;;;4.17;;
68921;SDS011;55959;51.244;5.724;2023-02-01T06:05:22;13.07;;;3.73;;
68921;SDS011;55959;51.244;5.724;2023-02-01T06:07:48;14.97;;;3.97;;
68921;SDS011;55959;51.244;5.724;2023-02-01T06:10:15;17.10;;;4.03;;
68921;SDS011;55959;51.244;5.724;2023-02-01T06:12:42;14.77;;;3.90;;
68921;SDS011;55959;51.244;5.724;2023-02-01T06:15:09;16.43;;;4.30;;
68921;SDS011;55959;51.244;5.724;2023-02-01T06:17:36;13.63;;;3.70;;
68921;SDS011;55959;51.244;5.724;2023-02-01T06:20:03;13.53;;;4.60;;
68921;SDS011;55959;51.244;5.724;2023-02-01T06:22:31;12.40;;;3.67;;
68921;SDS011;55959;51.244;5.724;2023-02-01T06:24:57;15.60;;;4.20;;
68921;SDS011;55959;51.244;5.724;2023-02-01T06:27:24;16.40;;;4.03;;
68921;SDS011;55959;51.244;5.724;2023-02-01T06:29:50;11.00;;;3.27;;
68921;SDS011;55959;51.244;5.724;2023-02-01T06:32:16;14.17;;;3.80;;
68921;SDS011;55959;51.244;5.724;2023-02-01T06:34:42;13.03;;;4.00;;
68921;SDS011;55959;51.244;5.724;2023-02-01T06:37:08;14.43;;;3.87;;
68921;SDS011;55959;51.244;5.724;2023-02-01T06:39:36;17.47;;;4.63;;
68921;SDS011;55959;51.244;5.724;2023-02-01T06:42:04;16.90;;;3.33;;
68921;SDS011;55959;51.244;5.724;2023-02-01T06:44:29;15.23;;;4.47;;
68921;SDS011;55959;51.244;5.724;2023-02-01T06:46:55;16.10;;;4.33;;
68921;SDS011;55959;51.244;5.724;2023-02-01T06:49:21;14.03;;;4.27;;
68921;SDS011;55959;51.244;5.724;2023-02-01T06:51:47;16.37;;;4.17;;
68921;SDS011;55959;51.244;5.724;2023-02-01T06:54:12;13.63;;;4.17;;
68921;SDS011;55959;51.244;5.724;2023-02-01T06:56:38;10.43;;;3.67;;
68921;SDS011;55959;51.244;5.724;2023-02-01T06:59:05;14.27;;;4.67;;
68921;SDS011;55959;51.244;5.724;2023-02-01T07:01:32;13.13;;;3.63;;
68921;SDS011;55959;51.244;5.724;2023-02-01T07:03:58;18.43;;;4.17;;
68921;SDS011;55959;51.244;5.724;2023-02-01T07:06:24;12.13;;;4.03;;
68921;SDS011;55959;51.244;5.724;2023-02-01T07:08:49;13.40;;;3.67;;
68921;SDS011;55959;51.244;5.724;2023-02-01T07:11:16;15.10;;;4.23;;
68921;SDS011;55959;51.244;5.724;2023-02-01T07:13:44;13.73;;;4.03;;
68921;SDS011;55959;51.244;5.724;2023-02-01T07:16:11;14.70;;;3.80;;
68921;SDS011;55959;51.244;5.724;2023-02-01T07:18:41;17.13;;;3.63;;
68921;SDS011;55959;51.244;5.724;2023-02-01T07:21:08;9.80;;;3.67;;
68921;SDS011;55959;51.244;5.724;2023-02-01T07:23:34;11.07;;;3.37;;
68921;SDS011;55959;51.244;5.724;2023-02-01T07:26:01;12.43;;;4.00;;
68921;SDS011;55959;51.244;5.724;2023-02-01T07:28:30;16.40;;;3.23;;
68921;SDS011;55959;51.244;5.724;2023-02-01T07:31:05;12.17;;;3.93;;
68921;SDS011;55959;51.244;5.724;2023-02-01T07:33:37;15.73;;;4.00;;
68921;SDS011;55959;51.244;5.724;2023-02-01T07:36:03;13.37;;;4.53;;
68921;SDS011;55959;51.244;5.724;2023-02-01T07:38:31;12.33;;;3.47;;
68921;SDS011;55959;51.244;5.724;2023-02-01T07:41:01;12.90;;;3.83;;
68921;SDS011;55959;51.244;5.724;2023-02-01T07:43:30;14.20;;;3.87;;
68921;SDS011;55959;51.244;5.724;2023-02-01T07:45:56;15.67;;;3.73;;
68921;SDS011;55959;51.244;5.724;2023-02-01T07:48:23;17.43;;;3.93;;
68921;SDS011;55959;51.244;5.724;2023-02-01T07:51:00;15.97;;;3.90;;
68921;SDS011;55959;51.244;5.724;2023-02-01T07:53:45;15.50;;;4.23;;
68921;SDS011;55959;51.244;5.724;2023-02-01T07:56:12;12.90;;;3.87;;
68921;SDS011;55959;51.244;5.724;2023-02-01T07:58:40;14.43;;;3.57;;
68921;SDS011;55959;51.244;5.724;2023-02-01T08:01:11;9.03;;;3.30;;
68921;SDS011;55959;51.244;5.724;2023-02-01T08:03:59;9.07;;;2.97;;
68921;SDS011;55959;51.244;5.724;2023-02-01T08:06:27;12.67;;;3.17;;
68921;SDS011;55959;51.244;5.724;2023-02-01T08:08:56;13.50;;;3.70;;
68921;SDS011;55959;51.244;5.724;2023-02-01T08:11:23;12.83;;;4.40;;
68921;SDS011;55959;51.244;5.724;2023-02-01T08:13:50;14.67;;;3.60;;
68921;SDS011;55959;51.244;5.724;2023-02-01T08:16:17;13.83;;;3.83;;
68921;SDS011;55959;51.244;5.724;2023-02-01T08:18:44;11.50;;;4.13;;
68921;SDS011;55959;51.244;5.724;2023-02-01T08:21:13;14.33;;;3.50;;
68921;SDS011;55959;51.244;5.724;2023-02-01T08:23:50;11.57;;;3.37;;
68921;SDS011;55959;51.244;5.724;2023-02-01T08:26:18;11.30;;;3.50;;
68921;SDS011;55959;51.244;5.724;2023-02-01T08:28:54;10.13;;;3.33;;
68921;SDS011;55959;51.244;5.724;2023-02-01T08:31:23;11.40;;;3.93;;
68921;SDS011;55959;51.244;5.724;2023-02-01T08:33:52;14.50;;;3.70;;
68921;SDS011;55959;51.244;5.724;2023-02-01T08:36:20;12.53;;;3.70;;
68921;SDS011;55959;51.244;5.724;2023-02-01T08:38:48;14.20;;;3.73;;
68921;SDS011;55959;51.244;5.724;2023-02-01T08:41:15;11.77;;;3.87;;
68921;SDS011;55959;51.244;5.724;2023-02-01T08:43:44;13.77;;;4.40;;
68921;SDS011;55959;51.244;5.724;2023-02-01T08:46:11;10.80;;;3.50;;
68921;SDS011;55959;51.244;5.724;2023-02-01T08:48:37;12.50;;;3.77;;
68921;SDS011;55959;51.244;5.724;2023-02-01T08:51:04;14.47;;;4.07;;
68921;SDS011;55959;51.244;5.724;2023-02-01T08:53:36;11.63;;;3.63;;
68921;SDS011;55959;51.244;5.724;2023-02-01T08:56:05;13.80;;;3.73;;
68921;SDS011;55959;51.244;5.724;2023-02-01T08:58:31;13.27;;;4.13;;
68921;SDS011;55959;51.244;5.724;2023-02-01T09:01:02;12.97;;;3.97;;
68921;SDS011;55959;51.244;5.724;2023-02-01T09:03:40;15.63;;;4.20;;
68921;SDS011;55959;51.244;5.724;2023-02-01T09:06:07;15.53;;;3.87;;
68921;SDS011;55959;51.244;5.724;2023-02-01T09:08:36;16.90;;;4.37;;
68921;SDS011;55959;51.244;5.724;2023-02-01T09:11:03;13.00;;;3.90;;
68921;SDS011;55959;51.244;5.724;2023-02-01T09:13:32;17.53;;;4.60;;
68921;SDS011;55959;51.244;5.724;2023-02-01T09:15:59;16.83;;;4.23;;
68921;SDS011;55959;51.244;5.724;2023-02-01T09:18:25;11.23;;;3.83;;
68921;SDS011;55959;51.244;5.724;2023-02-01T09:20:51;15.50;;;4.03;;
68921;SDS011;55959;51.244;5.724;2023-02-01T09:23:17;13.97;;;4.53;;
68921;SDS011;55959;51.244;5.724;2023-02-01T09:25:45;15.97;;;4.17;;
68921;SDS011;55959;51.244;5.724;2023-02-01T09:28:13;13.27;;;3.53;;
68921;SDS011;55959;51.244;5.724;2023-02-01T09:30:39;14.67;;;4.13;;
68921;SDS011;55959;51.244;5.724;2023-02-01T09:33:05;15.23;;;4.90;;
68921;SDS011;55959;51.244;5.724;2023-02-01T09:35:30;16.07;;;4.23;;
68921;SDS011;55959;51.244;5.724;2023-02-01T09:37:56;14.07;;;3.87;;
68921;SDS011;55959;51.244;5.724;2023-02-01T09:40:22;13.17;;;3.53;;
68921;SDS011;55959;51.244;5.724;2023-02-01T09:48:08;10.50;;;3.87;;
68921;SDS011;55959;51.244;5.724;2023-02-01T09:50:41;10.37;;;3.70;;
68921;SDS011;55959;51.244;5.724;2023-02-01T09:56:05;13.80;;;4.10;;
68921;SDS011;55959;51.244;5.724;2023-02-01T09:58:54;13.87;;;4.07;;
68921;SDS011;55959;51.244;5.724;2023-02-01T10:01:29;12.80;;;3.93;;
68921;SDS011;55959;51.244;5.724;2023-02-01T10:04:01;15.20;;;4.00;;
68921;SDS011;55959;51.244;5.724;2023-02-01T10:09:52;12.63;;;3.90;;
68921;SDS011;55959;51.244;5.724;2023-02-01T10:15:15;12.60;;;3.70;;
68921;SDS011;55959;51.244;5.724;2023-02-01T10:26:42;14.10;;;4.30;;
68921;SDS011;55959;51.244;5.724;2023-02-01T10:29:18;16.80;;;3.77;;
68921;SDS011;55959;51.244;5.724;2023-02-01T10:31:45;13.30;;;4.40;;
68921;SDS011;55959;51.244;5.724;2023-02-01T10:34:20;13.87;;;5.00;;
68921;SDS011;55959;51.244;5.724;2023-02-01T10:39:45;10.67;;;3.97;;
68921;SDS011;55959;51.244;5.724;2023-02-01T10:42:13;11.80;;;3.73;;
68921;SDS011;55959;51.244;5.724;2023-02-01T10:44:42;14.13;;;4.00;;
68921;SDS011;55959;51.244;5.724;2023-02-01T10:47:10;12.83;;;4.17;;
68921;SDS011;55959;51.244;5.724;2023-02-01T10:49:43;14.27;;;4.70;;
68921;SDS011;55959;51.244;5.724;2023-02-01T10:52:23;15.73;;;4.23;;
68921;SDS011;55959;51.244;5.724;2023-02-01T10:54:56;15.03;;;4.57;;
68921;SDS011;55959;51.244;5.724;2023-02-01T10:57:55;12.90;;;3.97;;
68921;SDS011;55959;51.244;5.724;2023-02-01T11:00:38;11.07;;;3.40;;
68921;SDS011;55959;51.244;5.724;2023-02-01T11:03:29;9.50;;;3.87;;
68921;SDS011;55959;51.244;5.724;2023-02-01T11:08:59;12.57;;;3.93;;
68921;SDS011;55959;51.244;5.724;2023-02-01T11:11:56;12.57;;;3.77;;
68921;SDS011;55959;51.244;5.724;2023-02-01T11:14:27;11.63;;;3.60;;
68921;SDS011;55959;51.244;5.724;2023-02-01T11:19:44;11.83;;;4.00;;
68921;SDS011;55959;51.244;5.724;2023-02-01T11:22:11;12.10;;;4.37;;
68921;SDS011;55959;51.244;5.724;2023-02-01T11:24:38;16.20;;;4.30;;
68921;SDS011;55959;51.244;5.724;2023-02-01T11:27:12;10.53;;;3.23;;
68921;SDS011;55959;51.244;5.724;2023-02-01T11:29:43;11.03;;;3.47;;
68921;SDS011;55959;51.244;5.724;2023-02-01T11:32:13;15.00;;;4.33;;
68921;SDS011;55959;51.244;5.724;2023-02-01T11:34:44;9.27;;;3.30;;
68921;SDS011;55959;51.244;5.724;2023-02-01T11:39:54;8.77;;;3.17;;
68921;SDS011;55959;51.244;5.724;2023-02-01T11:42:53;10.60;;;3.20;;
68921;SDS011;55959;51.244;5.724;2023-02-01T11:45:34;12.10;;;2.90;;
68921;SDS011;55959;51.244;5.724;2023-02-01T11:48:02;8.93;;;3.03;;
68921;SDS011;55959;51.244;5.724;2023-02-01T11:56:36;8.87;;;3.10;;
68921;SDS011;55959;51.244;5.724;2023-02-01T11:59:35;9.17;;;3.17;;
68921;SDS011;55959;51.244;5.724;2023-02-01T12:02:23;8.27;;;3.27;;
68921;SDS011;55959;51.244;5.724;2023-02-01T12:29:04;10.30;;;2.70;;
68921;SDS011;55959;51.244;5.724;2023-02-01T12:37:44;9.03;;;2.23;;
68921;SDS011;55959;51.244;5.724;2023-02-01T12:40:41;5.43;;;2.00;;
68921;SDS011;55959;51.244;5.724;2023-02-01T12:43:52;7.17;;;2.43;;
68921;SDS011;55959;51.244;5.724;2023-02-01T12:46:33;8.63;;;2.73;;
68921;SDS011;55959;51.244;5.724;2023-02-01T12:49:17;9.17;;;3.03;;
68921;SDS011;55959;51.244;5.724;2023-02-01T12:52:09;5.10;;;2.40;;
68921;SDS011;55959;51.244;5.724;2023-02-01T12:54:50;11.27;;;2.80;;
68921;SDS011;55959;51.244;5.724;2023-02-01T12:57:51;8.07;;;2.40;;
68921;SDS011;55959;51.244;5.724;2023-02-01T13:00:28;8.07;;;2.57;;
68921;SDS011;55959;51.244;5.724;2023-02-01T13:05:37;11.77;;;3.27;;
68921;SDS011;55959;51.244;5.724;2023-02-01T13:08:18;5.73;;;1.87;;
68921;SDS011;55959;51.244;5.724;2023-02-01T13:11:51;7.73;;;2.40;;
68921;SDS011;55959;51.244;5.724;2023-02-01T13:17:26;8.33;;;2.83;;
68921;SDS011;55959;51.244;5.724;2023-02-01T13:19:59;10.30;;;2.83;;
68921;SDS011;55959;51.244;5.724;2023-02-01T13:24:58;8.23;;;2.20;;
68921;SDS011;55959;51.244;5.724;2023-02-01T13:27:38;8.03;;;2.60;;
68921;SDS011;55959;51.244;5.724;2023-02-01T13:35:34;7.17;;;1.90;;
68921;SDS011;55959;51.244;5.724;2023-02-01T13:41:41;10.50;;;3.33;;
68921;SDS011;55959;51.244;5.724;2023-02-01T13:44:25;11.17;;;2.83;;
68921;SDS011;55959;51.244;5.724;2023-02-01T13:47:08;7.50;;;2.33;;
68921;SDS011;55959;51.244;5.724;2023-02-01T13:49:51;9.27;;;2.47;;
68921;SDS011;55959;51.244;5.724;2023-02-01T13:52:25;12.90;;;2.70;;
68921;SDS011;55959;51.244;5.724;2023-02-01T13:55:24;11.20;;;2.87;;
68921;SDS011;55959;51.244;5.724;2023-02-01T13:57:59;8.83;;;2.17;;
68921;SDS011;55959;51.244;5.724;2023-02-01T14:00:46;7.63;;;2.70;;
68921;SDS011;55959;51.244;5.724;2023-02-01T14:03:15;10.60;;;2.63;;
68921;SDS011;55959;51.244;5.724;2023-02-01T14:08:10;11.07;;;2.93;;
68921;SDS011;55959;51.244;5.724;2023-02-01T14:13:27;11.63;;;3.20;;
68921;SDS011;55959;51.244;5.724;2023-02-01T14:26:54;9.87;;;2.60;;
68921;SDS011;55959;51.244;5.724;2023-02-01T14:47:49;9.37;;;2.50;;
68921;SDS011;55959;51.244;5.724;2023-02-01T14:53:13;10.00;;;3.03;;
68921;SDS011;55959;51.244;5.724;2023-02-01T15:06:37;10.50;;;2.90;;
68921;SDS011;55959;51.244;5.724;2023-02-01T15:09:26;10.83;;;3.17;;
68921;SDS011;55959;51.244;5.724;2023-02-01T15:14:33;11.20;;;2.83;;
68921;SDS011;55959;51.244;5.724;2023-02-01T15:17:15;11.30;;;3.30;;
68921;SDS011;55959;51.244;5.724;2023-02-01T15:20:03;10.93;;;2.80;;
68921;SDS011;55959;51.244;5.724;2023-02-01T15:22:52;9.50;;;2.87;;
68921;SDS011;55959;51.244;5.724;2023-02-01T15:25:38;14.83;;;3.50;;
68921;SDS011;55959;51.244;5.724;2023-02-01T15:28:04;8.07;;;2.80;;
68921;SDS011;55959;51.244;5.724;2023-02-01T15:30:36;13.10;;;3.23;;
68921;SDS011;55959;51.244;5.724;2023-02-01T15:35:44;11.37;;;2.90;;
68921;SDS011;55959;51.244;5.724;2023-02-01T15:40:58;10.83;;;3.37;;
68921;SDS011;55959;51.244;5.724;2023-02-01T15:43:46;10.50;;;3.53;;
68921;SDS011;55959;51.244;5.724;2023-02-01T15:46:24;13.50;;;3.73;;
68921;SDS011;55959;51.244;5.724;2023-02-01T15:49:01;11.67;;;3.30;;
68921;SDS011;55959;51.244;5.724;2023-02-01T15:51:28;15.20;;;3.80;;
68921;SDS011;55959;51.244;5.724;2023-02-01T15:54:04;10.60;;;3.50;;
68921;SDS011;55959;51.244;5.724;2023-02-01T15:56:33;7.63;;;2.80;;
68921;SDS011;55959;51.244;5.724;2023-02-01T15:59:17;9.87;;;3.00;;
68921;SDS011;55959;51.244;5.724;2023-02-01T16:01:49;6.73;;;2.57;;
68921;SDS011;55959;51.244;5.724;2023-02-01T16:06:56;8.67;;;2.73;;
68921;SDS011;55959;51.244;5.724;2023-02-01T16:09:49;9.67;;;3.30;;
68921;SDS011;55959;51.244;5.724;2023-02-01T16:13:01;8.43;;;2.60;;
68921;SDS011;55959;51.244;5.724;2023-02-01T16:15:08;10.27;;;3.20;;
68921;SDS011;55959;51.244;5.724;2023-02-01T16:17:34;9.63;;;3.17;;
68921;SDS011;55959;51.244;5.724;2023-02-01T16:20:00;9.40;;;2.80;;
68921;SDS011;55959;51.244;5.724;2023-02-01T16:22:25;9.23;;;3.03;;
68921;SDS011;55959;51.244;5.724;2023-02-01T16:24:51;13.93;;;3.60;;
68921;SDS011;55959;51.244;5.724;2023-02-01T16:27:17;13.10;;;3.40;;
68921;SDS011;55959;51.244;5.724;2023-02-01T16:29:42;9.50;;;2.50;;
68921;SDS011;55959;51.244;5.724;2023-02-01T16:32:18;9.93;;;3.13;;
68921;SDS011;55959;51.244;5.724;2023-02-01T16:34:46;7.27;;;2.70;;
68921;SDS011;55959;51.244;5.724;2023-02-01T16:37:20;8.87;;;2.73;;
68921;SDS011;55959;51.244;5.724;2023-02-01T16:39:50;9.07;;;2.87;;
68921;SDS011;55959;51.244;5.724;2023-02-01T16:42:16;12.90;;;3.47;;
68921;SDS011;55959;51.244;5.724;2023-02-01T16:44:42;8.17;;;2.60;;
68921;SDS011;55959;51.244;5.724;2023-02-01T16:47:13;8.67;;;3.03;;
68921;SDS011;55959;51.244;5.724;2023-02-01T16:49:45;11.57;;;2.97;;
68921;SDS011;55959;51.244;5.724;2023-02-01T16:52:21;11.57;;;3.47;;
68921;SDS011;55959;51.244;5.724;2023-02-01T16:54:50;12.43;;;3.20;;
68921;SDS011;55959;51.244;5.724;2023-02-01T16:57:18;11.40;;;3.40;;
68921;SDS011;55959;51.244;5.724;2023-02-01T16:59:47;10.10;;;3.10;;
68921;SDS011;55959;51.244;5.724;2023-02-01T17:02:14;13.47;;;3.27;;
68921;SDS011;55959;51.244;5.724;2023-02-01T17:04:42;11.10;;;3.03;;
68921;SDS011;55959;51.244;5.724;2023-02-01T17:07:26;8.80;;;2.70;;
68921;SDS011;55959;51.244;5.724;2023-02-01T17:09:52;13.00;;;3.03;;
68921;SDS011;55959;51.244;5.724;2023-02-01T17:12:21;10.97;;;3.00;;
68921;SDS011;55959;51.244;5.724;2023-02-01T17:14:54;10.13;;;2.93;;
68921;SDS011;55959;51.244;5.724;2023-02-01T17:17:22;11.27;;;3.60;;
68921;SDS011;55959;51.244;5.724;2023-02-01T17:19:51;11.23;;;3.00;;
68921;SDS011;55959;51.244;5.724;2023-02-01T17:22:21;13.57;;;3.50;;
68921;SDS011;55959;51.244;5.724;2023-02-01T17:24:48;12.03;;;3.63;;
68921;SDS011;55959;51.244;5.724;2023-02-01T17:27:15;12.83;;;4.03;;
68921;SDS011;55959;51.244;5.724;2023-02-01T17:29:42;15.93;;;3.80;;
68921;SDS011;55959;51.244;5.724;2023-02-01T17:32:21;13.20;;;4.00;;
68921;SDS011;55959;51.244;5.724;2023-02-01T17:34:49;12.67;;;3.80;;
68921;SDS011;55959;51.244;5.724;2023-02-01T17:37:18;9.20;;;3.40;;
68921;SDS011;55959;51.244;5.724;2023-02-01T17:39:55;9.10;;;3.27;;
68921;SDS011;55959;51.244;5.724;2023-02-01T17:42:22;9.13;;;3.53;;
68921;SDS011;55959;51.244;5.724;2023-02-01T17:44:59;10.77;;;3.53;;
68921;SDS011;55959;51.244;5.724;2023-02-01T17:47:45;9.83;;;3.63;;
68921;SDS011;55959;51.244;5.724;2023-02-01T17:50:11;9.07;;;3.10;;
68921;SDS011;55959;51.244;5.724;2023-02-01T17:52:38;12.03;;;3.70;;
68921;SDS011;55959;51.244;5.724;2023-02-01T17:55:39;11.23;;;3.83;;
68921;SDS011;55959;51.244;5.724;2023-02-01T17:57:57;12.10;;;3.70;;
68921;SDS011;55959;51.244;5.724;2023-02-01T18:00:23;12.33;;;3.63;;
68921;SDS011;55959;51.244;5.724;2023-02-01T18:02:49;8.43;;;3.50;;
68921;SDS011;55959;51.244;5.724;2023-02-01T18:05:19;12.70;;;3.93;;
68921;SDS011;55959;51.244;5.724;2023-02-01T18:07:51;15.50;;;4.10;;